NCAR-RAP Real-Time Weather Data

Output produced by METARs form (08 May 2021  16:06 UTC)
found at http://weather.rap.ucar.edu/surface/
 
KMTJ 081553Z AUTO 32008KT 10SM CLR 17/00 A2994 RMK AO2 SLP072 T01670000
KMTJ 081453Z AUTO 01006KT 10SM OVC095 15/00 A2995 RMK AO2 SLP070 T01500000 51009
KMTJ 081353Z AUTO 15007KT 10SM OVC110 13/M02 A2994 RMK AO2 SLP064 T01331022
KMTJ 081253Z AUTO 00000KT 10SM BKN110 12/M04 A2994 RMK AO2 SLP061 T01221039
KMTJ 081153Z AUTO 00000KT 10SM CLR 13/M07 A2992 RMK AO2 SLP055 T01281072 10194 20128 53014
KMTJ 081053Z AUTO 20007KT 10SM CLR 15/M09 A2989 RMK AO2 SLP040 T01501089
KMTJ 080953Z AUTO 19006KT 10SM CLR 15/M09 A2987 RMK AO2 SLP031 T01501094
KMTJ 080853Z AUTO 17011KT 10SM CLR 16/M11 A2987 RMK AO2 SLP030 T01561106 58003
KMTJ 080753Z AUTO 15010KT 10SM CLR 13/M08 A2988 RMK AO2 SLP039 T01281083
KMTJ 080653Z AUTO 17010KT 10SM CLR 17/M11 A2988 RMK AO2 SLP034 T01671106 402780083
KMTJ 080553Z AUTO 15009KT 10SM CLR 14/M07 A2988 RMK AO2 SLP040 T01391072 10267 20139 50003
KMTJ 080453Z AUTO 14011KT 10SM CLR 16/M07 A2988 RMK AO2 SLP044 T01561072
KMTJ 080353Z AUTO 13008KT 10SM CLR 18/M08 A2988 RMK AO2 SLP042 T01781078
KMTJ 080253Z AUTO 20006KT 10SM CLR 22/M10 A2987 RMK AO2 SLP040 T02171100 55002